Time;durP1;ratioP1;P1;durP2;ratioP2;P2;SDS_P1;SDS_P2;PMS_P1;PMS_P2;Temp;Humidity;BMP_temperature;BMP_pressure;BME280_temperature;BME280_humidity;BME280_pressure;Samples;Min_cycle;Max_cycle;Signal;HPM_P1;HPM_P2
2022/05/21 00:02:03;;;;;;;18.13;9.00;;;10.40;99.90;;;;;;4969768;28;20062;-70
2022/05/21 00:04:28;;;;;;;13.82;7.97;;;10.40;99.90;;;;;;4972401;28;20046;-70
2022/05/21 00:06:55;;;;;;;15.40;8.57;;;10.40;99.90;;;;;;4973320;28;20104;-70
2022/05/21 00:09:20;;;;;;;15.27;8.18;;;10.40;99.90;;;;;;4971856;28;20474;-70
2022/05/21 00:11:46;;;;;;;17.63;8.60;;;10.40;99.90;;;;;;4969968;28;20069;-70
2022/05/21 00:14:12;;;;;;;18.85;9.05;;;10.40;99.90;;;;;;4970525;28;20038;-71
2022/05/21 00:16:38;;;;;;;23.05;9.88;;;10.40;99.90;;;;;;4973438;28;20054;-71
2022/05/21 00:19:04;;;;;;;20.65;9.90;;;10.40;99.90;;;;;;4972164;28;20132;-70
2022/05/21 00:21:30;;;;;;;19.20;8.50;;;10.40;99.90;;;;;;4973193;28;20050;-71
2022/05/21 00:23:56;;;;;;;18.73;9.15;;;10.40;99.90;;;;;;4984308;28;20034;-70
2022/05/21 00:26:23;;;;;;;20.95;9.73;;;10.30;99.90;;;;;;4971281;28;20047;-70
2022/05/21 00:28:50;;;;;;;17.90;9.63;;;10.40;99.90;;;;;;4965119;28;20554;-70
2022/05/21 00:31:18;;;;;;;26.63;11.05;;;10.40;99.90;;;;;;4973368;28;20074;-70
2022/05/21 00:33:44;;;;;;;;;;;10.40;99.90;;;;;;4972361;28;20039;-70
2022/05/21 00:36:11;;;;;;;20.88;10.38;;;10.40;99.90;;;;;;4971355;28;19922;-70
2022/05/21 00:38:38;;;;;;;24.98;11.60;;;10.40;99.90;;;;;;4973523;28;20503;-71
2022/05/21 00:41:07;;;;;;;30.00;13.60;;;10.40;99.90;;;;;;4966236;28;20401;-71
2022/05/21 00:43:43;;;;;;;26.10;13.32;;;10.40;99.90;;;;;;4967921;28;20122;-70
2022/05/21 00:46:19;;;;;;;26.35;13.32;;;10.50;99.90;;;;;;4972841;28;20069;-70
2022/05/21 00:48:50;;;;;;;30.23;14.30;;;10.50;99.90;;;;;;4970255;28;20038;-70
2022/05/21 00:51:23;;;;;;;35.55;14.63;;;10.50;99.90;;;;;;4966632;28;20125;-70
2022/05/21 00:53:52;;;;;;;28.02;14.70;;;10.50;99.90;;;;;;4971375;28;20052;-70
2022/05/21 00:56:19;;;;;;;28.35;14.75;;;10.60;99.90;;;;;;4969569;28;20035;-70
2022/05/21 01:01:37;;;;;;;32.78;14.63;;;10.60;99.90;;;;;;4966064;28;20129;-69
2022/05/21 01:04:03;;;;;;;33.88;15.23;;;10.70;99.90;;;;;;4965670;28;20038;-70
2022/05/21 01:06:29;;;;;;;26.10;14.77;;;10.70;99.90;;;;;;4968638;28;20057;-70
2022/05/21 01:08:54;;;;;;;31.30;15.98;;;10.70;99.90;;;;;;4967244;28;20050;-70
2022/05/21 01:11:20;;;;;;;34.38;16.05;;;10.70;99.90;;;;;;4966757;28;20043;-69
2022/05/21 01:13:49;;;;;;;28.50;14.80;;;10.80;99.90;;;;;;4970798;28;20042;-70
2022/05/21 01:16:16;;;;;;;29.52;15.10;;;10.80;99.90;;;;;;4973176;28;20410;-70
2022/05/21 01:18:42;;;;;;;35.40;17.48;;;10.80;99.90;;;;;;4976628;28;20046;-70
2022/05/21 01:21:08;;;;;;;45.58;17.77;;;10.80;99.90;;;;;;4962146;28;20065;-70
2022/05/21 01:23:34;;;;;;;39.00;18.95;;;10.80;99.90;;;;;;4969856;28;20094;-70
2022/05/21 01:26:02;;;;;;;33.53;17.83;;;10.80;99.90;;;;;;4969462;28;20050;-70
2022/05/21 01:28:31;;;;;;;30.83;18.48;;;10.80;99.90;;;;;;4972791;28;20125;-70
2022/05/21 01:31:00;;;;;;;36.90;19.77;;;10.80;99.90;;;;;;4964650;28;20035;-70
2022/05/21 01:33:35;;;;;;;34.88;19.13;;;10.80;99.90;;;;;;4971712;28;20054;-70
2022/05/21 01:36:06;;;;;;;32.47;18.17;;;10.90;99.90;;;;;;4971431;28;20051;-71
2022/05/21 01:38:36;;;;;;;36.28;19.85;;;10.90;99.90;;;;;;4986822;28;20142;-69
2022/05/21 01:41:02;;;;;;;34.38;20.40;;;11.00;99.90;;;;;;4968451;28;20198;-71
2022/05/21 01:46:15;;;;;;;36.28;21.58;;;11.00;99.90;;;;;;4963941;28;20058;-70
2022/05/21 01:48:41;;;;;;;57.17;25.00;;;11.00;99.90;;;;;;4970630;28;20074;-69
2022/05/21 01:51:08;;;;;;;49.83;22.70;;;11.10;99.90;;;;;;4970382;28;20313;-69
2022/05/21 01:53:35;;;;;;;43.67;23.42;;;11.10;99.90;;;;;;4967021;28;20486;-69
2022/05/21 01:56:01;;;;;;;48.53;24.23;;;11.10;99.90;;;;;;4971056;28;20076;-69
2022/05/21 01:58:28;;;;;;;51.33;26.25;;;11.20;99.90;;;;;;4971009;28;20047;-70
2022/05/21 02:00:55;;;;;;;37.88;23.42;;;11.20;99.90;;;;;;4965116;28;20061;-69
2022/05/21 02:03:21;;;;;;;42.97;25.35;;;11.30;99.90;;;;;;4969579;28;20074;-71
2022/05/21 02:05:46;;;;;;;56.65;26.70;;;11.30;99.90;;;;;;4969625;28;20053;-70
2022/05/21 02:08:14;;;;;;;50.10;26.05;;;11.40;99.90;;;;;;4965234;28;20043;-71
2022/05/21 02:10:41;;;;;;;49.20;28.52;;;11.70;99.90;;;;;;4971066;28;20139;-71
2022/05/21 02:13:11;;;;;;;55.20;26.67;;;11.40;99.90;;;;;;4966029;28;20358;-72
2022/05/21 02:15:37;;;;;;;51.22;27.33;;;11.50;99.90;;;;;;4970585;28;20050;-70
2022/05/21 02:18:03;;;;;;;40.33;26.05;;;11.50;99.90;;;;;;4966493;28;20062;-69
2022/05/21 02:20:29;;;;;;;45.20;24.30;;;11.50;99.90;;;;;;4976272;28;20042;-69
2022/05/21 02:22:54;;;;;;;53.33;29.17;;;11.60;99.90;;;;;;4975995;28;20039;-70
2022/05/21 02:25:20;;;;;;;49.30;28.25;;;11.60;99.90;;;;;;4967373;28;20053;-70
2022/05/21 02:27:46;;;;;;;51.88;29.52;;;11.70;99.90;;;;;;4959781;28;20043;-70
2022/05/21 02:30:13;;;;;;;58.97;31.48;;;11.70;99.90;;;;;;4965177;28;20038;-69
2022/05/21 02:32:39;;;;;;;53.47;29.02;;;11.70;99.90;;;;;;4968751;28;20501;-69
2022/05/21 02:35:05;;;;;;;61.22;30.15;;;11.70;99.90;;;;;;4968853;28;20155;-72
2022/05/21 02:40:16;;;;;;;52.85;31.40;;;11.80;99.90;;;;;;4974099;28;20097;-70
2022/05/21 02:42:45;;;;;;;52.00;29.10;;;11.80;99.90;;;;;;4976142;28;20125;-69
2022/05/21 02:45:19;;;;;;;54.85;29.58;;;11.90;99.90;;;;;;4969029;28;20485;-70
2022/05/21 02:47:46;;;;;;;49.90;29.02;;;11.90;99.90;;;;;;4974351;28;20039;-70
2022/05/21 02:50:25;;;;;;;51.55;29.10;;;11.90;99.90;;;;;;4977430;28;20046;-70
2022/05/21 02:52:54;;;;;;;53.95;31.45;;;12.00;99.90;;;;;;4972424;28;20050;-71
2022/05/21 02:55:22;;;;;;;49.35;28.52;;;12.00;99.90;;;;;;4974902;28;20046;-71
2022/05/21 02:57:48;;;;;;;49.10;26.13;;;12.00;99.90;;;;;;4973793;28;20043;-72
2022/05/21 03:00:20;;;;;;;61.55;29.55;;;12.00;99.90;;;;;;4962490;28;20540;-71
2022/05/21 03:02:46;;;;;;;58.20;29.77;;;12.00;99.90;;;;;;4970017;28;20117;-70
2022/05/21 03:05:13;;;;;;;48.45;25.33;;;12.00;99.90;;;;;;4988230;28;20535;-70
2022/05/21 03:07:41;;;;;;;51.30;25.85;;;12.10;99.90;;;;;;4972949;28;20150;-70
2022/05/21 03:10:21;;;;;;;43.30;21.48;;;12.10;99.90;;;;;;4965695;28;20043;-70
2022/05/21 03:12:49;;;;;;;46.63;21.45;;;12.10;99.90;;;;;;4972468;28;20285;-71
2022/05/21 03:15:16;;;;;;;47.53;19.02;;;12.10;99.90;;;;;;4973634;28;20043;-71
2022/05/21 03:17:46;;;;;;;42.70;19.75;;;12.20;99.90;;;;;;4956753;28;20062;-70
2022/05/21 03:20:13;;;;;;;44.22;15.32;;;12.20;99.90;;;;;;4970474;28;20042;-70
2022/05/21 03:22:42;;;;;;;40.53;14.70;;;12.30;99.90;;;;;;4969678;28;20741;-70
2022/05/21 03:25:10;;;;;;;36.90;15.25;;;12.30;99.90;;;;;;4962032;28;20428;-70
2022/05/21 03:27:36;;;;;;;35.22;14.00;;;12.30;99.90;;;;;;4956510;28;20049;-70
2022/05/21 03:30:05;;;;;;;38.60;13.13;;;12.40;99.90;;;;;;4974722;28;20049;-70
2022/05/21 03:32:30;;;;;;;36.35;11.68;;;12.30;99.90;;;;;;4973912;28;20043;-69
2022/05/21 03:34:56;;;;;;;32.67;11.02;;;12.30;99.90;;;;;;4975104;28;20053;-70
2022/05/21 03:37:22;;;;;;;32.90;12.07;;;12.40;99.90;;;;;;4975130;28;20042;-70
2022/05/21 03:39:48;;;;;;;42.65;11.82;;;12.40;99.90;;;;;;4988557;28;20043;-70
2022/05/21 03:42:14;;;;;;;37.03;10.52;;;12.40;99.90;;;;;;4972387;28;20042;-70
2022/05/21 03:44:40;;;;;;;34.97;11.13;;;12.40;99.90;;;;;;4978065;28;20047;-71
2022/05/21 03:47:06;;;;;;;34.50;10.30;;;12.50;99.90;;;;;;4972348;28;20038;-69
2022/05/21 03:49:32;;;;;;;33.10;9.77;;;12.50;99.90;;;;;;4988937;28;20078;-69
2022/05/21 03:51:57;;;;;;;35.92;8.93;;;12.50;99.90;;;;;;4969303;28;20153;-71
2022/05/21 03:54:23;;;;;;;29.33;9.57;;;12.60;99.90;;;;;;4972452;28;20434;-70
2022/05/21 03:56:49;;;;;;;30.48;8.75;;;12.50;99.90;;;;;;4970993;28;20378;-70
2022/05/21 03:59:15;;;;;;;33.30;8.63;;;12.60;99.90;;;;;;4970557;28;20097;-70
2022/05/21 04:01:41;;;;;;;29.30;7.65;;;12.60;99.90;;;;;;4972416;28;20094;-71
2022/05/21 04:04:07;;;;;;;31.52;8.25;;;12.60;99.90;;;;;;4971512;28;20077;-70
2022/05/21 04:06:33;;;;;;;26.05;7.35;;;12.60;99.90;;;;;;4976795;28;20057;-71
2022/05/21 04:08:59;;;;;;;30.52;8.35;;;12.70;99.90;;;;;;4968471;28;20039;-70
2022/05/21 04:11:25;;;;;;;39.63;8.13;;;12.60;99.90;;;;;;4974041;28;20050;-70
2022/05/21 04:13:50;;;;;;;33.45;6.95;;;12.60;99.90;;;;;;4973385;28;20039;-70
2022/05/21 04:16:16;;;;;;;25.85;6.68;;;12.80;99.90;;;;;;4973396;28;20500;-70
2022/05/21 04:18:42;;;;;;;19.45;6.93;;;12.80;99.90;;;;;;4987358;28;20093;-71
2022/05/21 04:21:10;;;;;;;24.85;6.57;;;12.80;99.90;;;;;;4973169;28;20053;-68
2022/05/21 04:23:35;;;;;;;26.13;7.18;;;12.80;99.90;;;;;;4984928;28;20039;-69
2022/05/21 04:26:01;;;;;;;30.15;6.90;;;12.80;99.90;;;;;;4975057;28;20504;-70
2022/05/21 04:28:27;;;;;;;19.88;6.00;;;12.70;99.90;;;;;;4980686;28;20043;-71
2022/05/21 04:30:52;;;;;;;20.67;6.32;;;12.80;99.90;;;;;;4971162;28;20051;-70
2022/05/21 04:33:18;;;;;;;23.52;6.05;;;12.90;99.90;;;;;;4974973;28;20464;-70
2022/05/21 04:38:27;;;;;;;22.88;5.05;;;12.80;99.90;;;;;;4977001;28;20142;-71
2022/05/21 04:40:53;;;;;;;18.58;5.82;;;12.80;99.90;;;;;;4965685;28;20134;-70
2022/05/21 04:43:19;;;;;;;21.50;5.07;;;12.80;99.90;;;;;;4973008;28;20038;-70
2022/05/21 04:45:44;;;;;;;19.98;5.20;;;12.80;99.90;;;;;;4972353;28;20043;-71
2022/05/21 04:48:10;;;;;;;25.48;5.03;;;12.80;99.90;;;;;;4973932;28;20057;-71
2022/05/21 04:50:38;;;;;;;23.08;4.85;;;12.90;99.90;;;;;;4974059;28;20464;-70
2022/05/21 04:53:05;;;;;;;23.00;4.80;;;12.80;99.90;;;;;;4972692;28;20043;-68
2022/05/21 04:55:30;;;;;;;19.65;5.25;;;12.80;99.90;;;;;;4972589;28;20101;-70
2022/05/21 04:57:56;;;;;;;21.83;5.15;;;12.80;99.90;;;;;;4970964;28;20390;-70
2022/05/21 05:00:22;;;;;;;23.00;4.53;;;12.80;99.90;;;;;;4970140;28;20047;-70
2022/05/21 05:02:48;;;;;;;18.50;4.40;;;12.90;99.90;;;;;;4978668;28;20050;-72
2022/05/21 05:05:16;;;;;;;25.50;5.53;;;12.90;99.90;;;;;;4972171;28;20463;-70
2022/05/21 05:07:41;;;;;;;17.40;4.32;;;12.90;99.90;;;;;;4968399;28;20077;-69
2022/05/21 05:10:08;;;;;;;23.27;3.92;;;12.90;99.90;;;;;;4970199;28;20478;-71
2022/05/21 05:12:34;;;;;;;10.70;3.30;;;12.90;99.90;;;;;;4969843;28;20046;-69
2022/05/21 05:15:00;;;;;;;24.35;5.05;;;13.00;99.90;;;;;;4985736;28;20053;-72
2022/05/21 05:17:27;;;;;;;13.13;4.18;;;12.90;99.90;;;;;;4971160;28;20053;-71
2022/05/21 05:19:56;;;;;;;18.67;4.47;;;12.80;99.90;;;;;;4970299;28;20055;-72
2022/05/21 05:22:22;;;;;;;16.55;4.10;;;12.90;99.90;;;;;;4971511;28;20042;-70
2022/05/21 05:24:48;;;;;;;15.23;4.22;;;12.90;99.90;;;;;;4971869;28;20097;-71
2022/05/21 05:27:14;;;;;;;19.63;4.30;;;12.90;99.90;;;;;;4973934;28;20109;-70
2022/05/21 05:29:40;;;;;;;20.83;4.57;;;13.00;99.90;;;;;;4975379;28;20049;-70
2022/05/21 05:32:07;;;;;;;12.38;3.85;;;13.10;99.90;;;;;;4971703;28;20039;-70
2022/05/21 05:34:33;;;;;;;23.30;4.93;;;13.10;99.90;;;;;;4969726;28;20050;-69
2022/05/21 05:36:59;;;;;;;14.35;4.30;;;13.10;99.90;;;;;;4972812;28;20043;-70
2022/05/21 05:39:24;;;;;;;13.80;3.95;;;13.20;99.90;;;;;;4974353;28;20134;-71
2022/05/21 05:41:51;;;;;;;15.13;3.70;;;13.10;99.90;;;;;;4972017;28;20042;-70
2022/05/21 05:44:20;;;;;;;18.70;4.60;;;13.20;99.90;;;;;;4972837;28;20173;-70
2022/05/21 05:46:46;;;;;;;17.40;4.07;;;13.20;99.90;;;;;;4986965;28;20138;-70
2022/05/21 05:49:12;;;;;;;25.92;4.75;;;13.20;99.90;;;;;;4969628;28;20041;-70
2022/05/21 05:51:38;;;;;;;16.92;3.55;;;13.20;99.90;;;;;;4970802;28;20039;-71
2022/05/21 05:54:04;;;;;;;19.13;3.72;;;13.20;99.90;;;;;;4967094;28;20047;-70
2022/05/21 05:56:30;;;;;;;15.80;3.58;;;13.20;99.90;;;;;;4973878;28;20074;-70
2022/05/21 06:01:40;;;;;;;15.68;3.60;;;13.20;99.90;;;;;;4972044;28;20053;-70
2022/05/21 06:04:05;;;;;;;12.73;3.08;;;13.30;99.90;;;;;;4966001;28;20656;-70
2022/05/21 06:06:31;;;;;;;18.23;4.82;;;13.30;99.90;;;;;;4967659;28;20059;-71
2022/05/21 06:09:01;;;;;;;18.95;4.00;;;13.30;99.90;;;;;;4970440;28;20043;-70
2022/05/21 06:11:27;;;;;;;17.45;3.88;;;13.30;99.90;;;;;;4973083;28;20573;-70
2022/05/21 06:13:52;;;;;;;17.98;3.90;;;13.40;99.90;;;;;;4973215;28;20053;-71
2022/05/21 06:16:18;;;;;;;22.50;4.10;;;13.40;99.90;;;;;;4977866;28;20035;-71
2022/05/21 06:18:45;;;;;;;13.15;3.53;;;13.50;99.90;;;;;;4977403;28;20061;-69
2022/05/21 06:21:11;;;;;;;13.93;3.45;;;13.60;99.90;;;;;;4972608;28;20038;-69
2022/05/21 06:23:37;;;;;;;20.63;3.88;;;13.60;99.90;;;;;;4975788;28;20047;-69
2022/05/21 06:26:03;;;;;;;20.13;4.05;;;13.70;99.90;;;;;;4974861;28;20047;-69
2022/05/21 06:28:32;;;;;;;18.83;4.35;;;13.70;99.90;;;;;;4974132;28;20070;-71
2022/05/21 06:30:58;;;;;;;15.82;3.60;;;13.90;99.90;;;;;;4975679;28;20453;-69
2022/05/21 06:33:27;;;;;;;16.67;4.00;;;13.90;99.90;;;;;;4972754;28;20035;-70
2022/05/21 06:36:11;;;;;;;24.70;4.00;;;13.90;99.90;;;;;;4975628;28;20486;-71
2022/05/21 06:38:38;;;;;;;25.30;4.13;;;13.90;99.90;;;;;;4978988;28;20327;-70
2022/05/21 06:41:04;;;;;;;14.73;3.65;;;13.80;99.90;;;;;;4993936;28;20047;-68
2022/05/21 06:43:30;;;;;;;14.73;3.13;;;13.80;99.90;;;;;;4975783;28;20457;-68
2022/05/21 06:45:56;;;;;;;14.20;4.05;;;13.90;99.90;;;;;;4976406;28;20045;-69
2022/05/21 06:48:23;;;;;;;13.25;2.88;;;14.00;99.90;;;;;;4967418;28;20074;-69
2022/05/21 06:50:49;;;;;;;16.27;3.33;;;14.20;99.90;;;;;;4969196;28;20085;-69
2022/05/21 06:53:16;;;;;;;15.32;3.17;;;14.40;99.90;;;;;;4973600;28;20078;-70
2022/05/21 06:55:42;;;;;;;18.73;4.77;;;14.50;99.90;;;;;;4975791;28;20035;-69
2022/05/21 06:58:08;;;;;;;12.93;3.45;;;14.50;99.90;;;;;;4974334;28;20516;-69
2022/05/21 07:00:34;;;;;;;16.38;3.45;;;14.50;99.90;;;;;;4969403;28;20311;-69
2022/05/21 07:03:00;;;;;;;16.63;3.60;;;14.40;99.90;;;;;;4966216;28;20043;-69
2022/05/21 07:08:24;;;;;;;11.20;3.58;;;14.20;99.90;;;;;;4969113;28;20521;-68
2022/05/21 07:10:52;;;;;;;14.88;3.70;;;14.30;99.90;;;;;;4969720;28;20136;-70
2022/05/21 07:13:21;;;;;;;18.15;3.83;;;14.40;99.90;;;;;;4961394;28;20054;-70
2022/05/21 07:15:49;;;;;;;17.55;4.18;;;14.70;99.90;;;;;;4974046;28;20047;-69
2022/05/21 07:18:17;;;;;;;14.27;3.20;;;14.90;99.90;;;;;;4977468;28;20497;-70
2022/05/21 07:20:43;;;;;;;;;;;14.90;99.90;;;;;;4978989;28;20050;-70
2022/05/21 07:23:09;;;;;;;13.50;3.15;;;15.00;99.90;;;;;;4978910;28;20398;-69
2022/05/21 07:25:35;;;;;;;17.67;3.78;;;15.20;99.90;;;;;;4975060;28;20049;-70
2022/05/21 07:28:01;;;;;;;16.10;3.30;;;15.40;99.90;;;;;;4976041;28;20493;-69
2022/05/21 07:30:29;;;;;;;20.52;4.45;;;15.70;99.90;;;;;;4974553;28;20130;-69
2022/05/21 07:32:58;;;;;;;15.40;4.40;;;15.60;99.90;;;;;;4989906;28;20137;-69
2022/05/21 07:35:26;;;;;;;11.65;3.13;;;15.50;99.90;;;;;;4976221;28;20130;-69
2022/05/21 07:37:52;;;;;;;13.73;3.47;;;15.50;99.90;;;;;;4974298;28;20035;-69
2022/05/21 07:40:19;;;;;;;14.65;3.63;;;15.60;99.90;;;;;;4974473;28;20490;-67
2022/05/21 07:42:46;;;;;;;15.98;4.32;;;15.70;99.90;;;;;;4989997;28;20098;-69
2022/05/21 07:45:17;;;;;;;12.20;3.05;;;15.80;99.90;;;;;;4974753;28;20046;-70
2022/05/21 07:47:43;;;;;;;;;;;15.90;99.90;;;;;;4973728;28;20456;-67
2022/05/21 07:50:09;;;;;;;13.23;2.85;;;15.90;99.90;;;;;;4972491;28;19929;-69
2022/05/21 07:52:37;;;;;;;17.67;3.65;;;16.00;99.90;;;;;;4973922;28;20089;-68
2022/05/21 07:55:04;;;;;;;14.80;3.45;;;16.10;99.90;;;;;;4956132;28;20585;-70
2022/05/21 07:57:30;;;;;;;14.30;3.42;;;16.00;99.90;;;;;;4965636;28;20741;-69
2022/05/21 07:59:56;;;;;;;10.95;2.58;;;15.80;99.90;;;;;;4974822;28;20093;-69
2022/05/21 08:02:22;;;;;;;17.23;3.30;;;15.90;99.90;;;;;;4974182;28;20086;-67
2022/05/21 08:04:48;;;;;;;15.82;3.28;;;16.00;99.90;;;;;;4967519;28;20048;-68
2022/05/21 08:07:15;;;;;;;15.15;3.17;;;16.00;99.90;;;;;;4973045;28;20066;-71
2022/05/21 08:09:41;;;;;;;11.88;3.08;;;16.20;99.90;;;;;;4973248;28;20050;-68
2022/05/21 08:12:07;;;;;;;16.35;2.95;;;16.30;99.90;;;;;;4959254;28;20054;-69
2022/05/21 08:14:34;;;;;;;12.05;3.28;;;16.20;99.90;;;;;;4975585;28;20485;-68
2022/05/21 08:17:00;;;;;;;12.98;3.45;;;16.10;99.90;;;;;;4989933;28;20559;-69
2022/05/21 08:19:27;;;;;;;13.05;3.28;;;16.10;99.90;;;;;;4972796;28;20464;-69
2022/05/21 08:26:56;;;;;;;14.23;3.70;;;16.40;99.90;;;;;;4989818;28;20109;-67
2022/05/21 08:27:23;;;;;;;14.65;3.22;;;16.70;99.90;;;;;;4974062;28;20066;-70
2022/05/21 08:29:49;;;;;;;15.13;3.50;;;16.70;99.90;;;;;;4973483;28;20043;-70
2022/05/21 08:32:17;;;;;;;18.33;3.20;;;16.50;99.90;;;;;;4973553;28;20093;-68
2022/05/21 08:34:43;;;;;;;13.68;2.72;;;16.50;99.90;;;;;;4961881;28;20109;-68
2022/05/21 08:37:09;;;;;;;13.23;2.80;;;16.40;99.90;;;;;;4959977;28;20035;-67
2022/05/21 08:39:36;;;;;;;10.75;2.88;;;16.30;99.90;;;;;;4963226;28;20171;-69
2022/05/21 08:42:13;;;;;;;16.98;3.20;;;16.30;99.90;;;;;;4959230;28;20051;-67
2022/05/21 08:44:46;;;;;;;12.75;3.35;;;16.60;99.90;;;;;;4974203;28;20054;-68
2022/05/21 08:47:27;;;;;;;12.50;2.90;;;16.90;99.90;;;;;;4972566;28;20090;-68
2022/05/21 08:50:01;;;;;;;10.32;2.30;;;16.90;99.90;;;;;;4960221;28;20449;-67
2022/05/21 08:52:54;;;;;;;20.77;4.13;;;16.80;99.90;;;;;;4970470;28;20062;-69
2022/05/21 08:55:26;;;;;;;17.30;3.05;;;16.90;99.90;;;;;;4974378;28;20138;-68
2022/05/21 08:57:57;;;;;;;17.58;3.00;;;17.10;99.90;;;;;;4972963;28;20038;-68
2022/05/21 09:00:45;;;;;;;17.83;3.05;;;17.10;99.90;;;;;;4973752;28;20328;-68
2022/05/21 09:03:14;;;;;;;13.00;2.50;;;17.30;99.90;;;;;;4971485;28;20054;-68
2022/05/21 09:05:45;;;;;;;16.85;2.90;;;17.40;99.90;;;;;;4953384;28;20797;-67
2022/05/21 09:08:29;;;;;;;14.18;2.60;;;17.30;99.90;;;;;;4978887;28;20420;-67
2022/05/21 09:11:04;;;;;;;13.48;3.17;;;17.30;99.90;;;;;;4973497;28;20167;-68
2022/05/21 09:13:47;;;;;;;16.10;3.88;;;17.30;99.90;;;;;;4974317;28;20039;-67
2022/05/21 09:19:00;;;;;;;13.93;2.95;;;17.10;99.90;;;;;;4972777;28;20057;-69
2022/05/21 09:21:28;;;;;;;15.93;2.53;;;16.90;99.90;;;;;;4955531;28;20059;-67
2022/05/21 09:23:54;;;;;;;12.85;2.47;;;16.80;99.90;;;;;;4967750;28;20550;-69
2022/05/21 09:26:23;;;;;;;8.93;2.50;;;16.80;99.90;;;;;;4973993;28;20401;-67
2022/05/21 09:28:50;;;;;;;15.43;3.42;;;16.60;99.90;;;;;;4973323;28;20047;-68
2022/05/21 09:31:42;;;;;;;12.45;3.08;;;16.50;99.90;;;;;;4971461;28;20047;-69
2022/05/21 09:34:24;;;;;;;11.45;2.85;;;16.60;99.90;;;;;;4973814;28;20055;-69
2022/05/21 09:36:53;;;;;;;13.13;2.92;;;16.50;99.90;;;;;;4969601;28;20039;-69
2022/05/21 09:39:38;;;;;;;14.40;3.05;;;16.50;99.90;;;;;;4971949;28;20049;-68
2022/05/21 09:42:13;;;;;;;12.23;2.60;;;16.40;99.90;;;;;;4973708;28;20311;-68
2022/05/21 09:47:29;;;;;;;10.10;2.80;;;16.80;99.90;;;;;;4970252;28;20468;-68
2022/05/21 09:50:11;;;;;;;9.90;2.42;;;16.80;99.90;;;;;;4966094;28;20043;-68
2022/05/21 09:52:37;;;;;;;10.25;2.55;;;16.70;99.90;;;;;;4952108;28;20509;-68
2022/05/21 09:55:04;;;;;;;9.30;2.50;;;17.10;99.90;;;;;;4971096;28;20050;-69
2022/05/21 09:57:43;;;;;;;10.30;2.38;;;17.30;99.90;;;;;;4961252;28;20051;-68
2022/05/21 10:00:34;;;;;;;10.63;2.38;;;17.50;99.90;;;;;;4963883;28;20393;-68
2022/05/21 10:03:09;;;;;;;10.02;2.47;;;17.50;99.90;;;;;;4970804;28;20038;-69
2022/05/21 10:05:52;;;;;;;13.40;2.28;;;17.40;99.90;;;;;;4962719;28;20122;-69
2022/05/21 10:11:29;;;;;;;14.10;2.65;;;17.40;99.90;;;;;;4954803;28;20051;-68
2022/05/21 10:14:03;;;;;;;8.48;2.08;;;17.60;99.90;;;;;;4971263;28;20481;-69
2022/05/21 10:16:57;;;;;;;16.17;3.70;;;17.70;99.90;;;;;;4972586;28;20051;-69
2022/05/21 10:19:34;;;;;;;18.73;2.95;;;17.80;99.90;;;;;;4971398;28;20097;-68
2022/05/21 10:22:03;;;;;;;13.25;3.20;;;17.80;99.90;;;;;;4986856;28;20038;-68
2022/05/21 10:24:51;;;;;;;10.50;3.00;;;17.80;99.90;;;;;;4971807;28;20054;-68
2022/05/21 10:27:37;;;;;;;7.80;2.28;;;18.10;99.90;;;;;;4984861;28;20518;-68
2022/05/21 10:30:09;;;;;;;10.27;2.30;;;18.00;99.90;;;;;;4973375;28;20051;-68
2022/05/21 10:33:13;;;;;;;14.15;2.90;;;17.80;99.90;;;;;;4972956;28;20091;-68
2022/05/21 10:36:00;;;;;;;15.50;2.60;;;17.70;99.90;;;;;;4965472;28;20497;-69
2022/05/21 10:38:47;;;;;;;10.85;2.35;;;17.50;99.90;;;;;;4971682;28;21206;-68
2022/05/21 10:41:44;;;;;;;7.03;2.33;;;17.30;99.90;;;;;;4972641;28;20039;-68
2022/05/21 10:44:21;;;;;;;11.15;2.30;;;17.10;99.90;;;;;;4970052;28;20051;-68
2022/05/21 10:47:03;;;;;;;8.43;2.35;;;17.20;99.90;;;;;;4983427;28;20420;-67
2022/05/21 10:49:37;;;;;;;16.35;2.40;;;17.60;99.90;;;;;;4953909;28;20047;-68
2022/05/21 10:52:16;;;;;;;8.95;2.47;;;18.00;99.90;;;;;;4967870;28;20110;-68
2022/05/21 10:54:45;;;;;;;14.18;2.95;;;18.30;99.90;;;;;;4967622;28;20101;-69
2022/05/21 10:57:55;;;;;;;8.05;2.47;;;18.30;99.90;;;;;;4969557;28;20081;-68
2022/05/21 11:00:52;;;;;;;17.02;3.55;;;18.10;99.90;;;;;;4973236;28;20359;-68
2022/05/21 11:03:47;;;;;;;10.93;2.05;;;17.90;99.90;;;;;;4955699;29;20051;-69
2022/05/21 11:06:55;;;;;;;8.48;2.50;;;18.00;99.90;;;;;;4961116;28;20039;-68
2022/05/21 11:09:42;;;;;;;9.45;2.38;;;18.40;99.90;;;;;;4976126;28;20186;-69
2022/05/21 11:12:20;;;;;;;10.15;2.10;;;18.90;99.90;;;;;;4972649;28;20061;-67
2022/05/21 11:14:59;;;;;;;15.75;2.50;;;19.30;99.90;;;;;;4971364;28;20479;-68
2022/05/21 11:17:40;;;;;;;;;;;19.50;99.90;;;;;;4976805;28;20051;-70
2022/05/21 11:20:27;;;;;;;7.32;2.08;;;19.70;99.90;;;;;;4990907;28;19977;-68
2022/05/21 11:23:11;;;;;;;8.45;2.13;;;19.80;99.90;;;;;;4973188;28;20047;-69
2022/05/21 11:25:58;;;;;;;11.05;2.75;;;20.10;99.90;;;;;;4969108;28;20089;-67
2022/05/21 11:28:40;;;;;;;8.65;2.50;;;20.10;98.40;;;;;;4969748;28;20051;-67
2022/05/21 11:31:15;;;;;;;12.18;2.42;;;19.70;97.60;;;;;;4966983;28;20083;-67
2022/05/21 11:39:18;;;;;;;9.60;2.33;;;19.40;99.90;;;;;;4966852;28;20585;-68
2022/05/21 11:42:00;;;;;;;8.07;2.15;;;19.60;99.10;;;;;;4973704;28;20089;-69
2022/05/21 11:44:55;;;;;;;7.18;2.10;;;19.90;99.30;;;;;;4978813;28;20112;-67
2022/05/21 11:47:21;;;;;;;10.10;2.67;;;20.30;97.70;;;;;;4970522;28;20405;-68
2022/05/21 11:50:02;;;;;;;7.80;2.30;;;20.50;95.70;;;;;;4975728;28;20046;-68
2022/05/21 11:52:27;;;;;;;8.40;2.20;;;20.70;97.50;;;;;;4976151;28;20069;-67
2022/05/21 11:54:53;;;;;;;19.13;3.15;;;20.70;96.30;;;;;;4973591;28;20497;-69
2022/05/21 11:57:37;;;;;;;8.55;2.17;;;20.50;96.60;;;;;;4966269;28;20035;-68
2022/05/21 12:00:06;;;;;;;7.53;2.28;;;20.10;95.80;;;;;;4988608;28;20049;-67
2022/05/21 12:02:34;;;;;;;8.43;2.25;;;19.80;95.50;;;;;;4983077;28;20042;-67
2022/05/21 12:05:05;;;;;;;11.35;3.00;;;19.60;96.40;;;;;;4972530;28;20568;-68
2022/05/21 12:07:53;;;;;;;9.68;2.17;;;19.40;97.80;;;;;;4974061;28;20156;-68
2022/05/21 12:10:29;;;;;;;9.23;2.25;;;19.60;98.80;;;;;;4976160;28;20054;-68
2022/05/21 12:13:03;;;;;;;7.85;1.90;;;19.90;98.70;;;;;;4974038;28;20170;-68
2022/05/21 12:15:45;;;;;;;15.48;2.60;;;20.10;97.40;;;;;;4978221;28;20043;-68
2022/05/21 12:18:25;;;;;;;8.15;2.13;;;20.20;97.20;;;;;;4974538;28;20086;-69
2022/05/21 12:20:52;;;;;;;11.73;2.42;;;20.00;95.30;;;;;;4974209;28;20464;-68
2022/05/21 12:23:32;;;;;;;11.63;2.40;;;19.60;94.80;;;;;;4972761;28;20126;-67
2022/05/21 12:26:02;;;;;;;9.13;2.60;;;19.40;95.30;;;;;;4971937;28;20038;-68
2022/05/21 12:28:42;;;;;;;8.07;2.20;;;18.90;96.30;;;;;;4969214;28;20042;-67
2022/05/21 12:31:19;;;;;;;5.60;1.95;;;18.60;96.80;;;;;;4968830;28;20109;-68
2022/05/21 12:34:14;;;;;;;8.82;2.40;;;18.70;96.80;;;;;;4971696;28;20501;-67
2022/05/21 12:36:55;;;;;;;7.78;1.80;;;18.80;97.90;;;;;;4964380;28;20043;-68
2022/05/21 12:39:27;;;;;;;6.68;2.05;;;19.00;95.70;;;;;;4975052;28;20502;-68
2022/05/21 12:41:57;;;;;;;6.97;2.10;;;19.00;96.40;;;;;;4961205;28;20035;-67
2022/05/21 12:44:55;;;;;;;13.13;2.38;;;19.10;95.80;;;;;;4969439;28;20034;-69
2022/05/21 12:47:36;;;;;;;8.48;1.90;;;19.00;96.00;;;;;;4984138;28;20085;-66
2022/05/21 12:50:17;;;;;;;5.85;1.85;;;19.00;95.30;;;;;;4957540;28;20054;-67
2022/05/21 12:52:51;;;;;;;8.55;2.10;;;19.10;96.10;;;;;;4965023;28;20082;-68
2022/05/21 12:55:27;;;;;;;6.57;1.90;;;19.20;95.50;;;;;;4967314;28;20046;-67
2022/05/21 12:58:13;;;;;;;9.68;1.95;;;19.30;96.10;;;;;;4965993;28;20051;-68
2022/05/21 13:00:51;;;;;;;6.82;1.70;;;19.80;98.10;;;;;;4967300;28;20058;-68
2022/05/21 13:03:18;;;;;;;9.45;2.30;;;20.40;95.80;;;;;;4968156;28;20552;-68
2022/05/21 13:05:58;;;;;;;11.60;1.80;;;20.90;96.70;;;;;;4968490;28;20042;-68
2022/05/21 13:08:25;;;;;;;5.70;1.77;;;21.30;95.00;;;;;;4968356;28;20063;-68
2022/05/21 13:10:58;;;;;;;7.88;2.08;;;21.40;91.30;;;;;;4965127;28;20512;-68
2022/05/21 13:13:26;;;;;;;12.73;2.65;;;21.20;92.10;;;;;;4966366;28;20055;-68
2022/05/21 13:16:05;;;;;;;6.15;1.80;;;21.00;93.10;;;;;;4968560;28;20058;-68
2022/05/21 13:18:42;;;;;;;6.18;1.65;;;21.00;93.10;;;;;;4965811;28;20497;-69
2022/05/21 13:21:43;;;;;;;10.00;2.35;;;20.90;93.20;;;;;;4965125;28;20497;-68
2022/05/21 13:24:27;;;;;;;11.77;2.10;;;20.50;91.70;;;;;;4965204;28;20043;-67
2022/05/21 13:27:22;;;;;;;8.45;1.98;;;20.40;92.80;;;;;;4966984;28;20057;-67
2022/05/21 13:29:50;;;;;;;10.70;1.75;;;20.90;92.00;;;;;;4960536;28;20141;-67
2022/05/21 13:32:21;;;;;;;7.78;1.63;;;20.90;90.30;;;;;;4964278;28;20085;-68